Reddick, Illinois
Current Conditions -  °F | °C
As of 1:55 AM on Friday 31 Oct 2014 (Local Time) from KIKK Reporting Station
Overcast Overcast  
Wind Chill: 40°   Ceiling: 6000
Heat Index: 43°   Visibility: 10mi
Dew Point: 40°   Wind: 6mph
Humidity: 87%   Direction: 260°W
Pressure: 30.04"   Gusts: NA
Location:  41.1°N, 88.25°W
Report Text: KIKK 310655Z AUTO 26005KT 10SM OVC060 06/04 A3004 RMK AO2 T00620042
Loading
Personal Weather Stations






























Interactive Weather Map
Tropical Storm Tracking
New forecast layout! Learn more

10-Day Weather Forecast

Advertisements
Track Severe Weather on mobile